Terminal Aerodrome Forecast
Issued by NWS

Home | Current Version | Previous Version | Text Only | Print | Product List | Glossary On
Versions: 1 2 3 4 5 6 7 8 9 10 11 12 13 14 15 16 17 18 19 20 21 22 23 24 25 26 27 28 29 30 31 32 33 34 35 36 37 38 39 40
000
FTAK31 PANC 051124
TAFADQ
TAF
PADQ 051124Z 0512/0612 09010KT 1SM BR VV002
      TEMPO 0512/0516 1/2SM FG VV001
     FM051600 09012KT 1SM -RA BR SCT003 OVC005
      TEMPO 0516/0520 1/2SM FG BKN003
     FM060200 10010KT 3SM -RA BR SCT003 OVC005=

USA.gov is the U.S. government's official web portal to all federal, state and local government web resources and services.